createdAt,value
2022-12-31T00:04:52.963Z,94.59
2022-12-31T00:10:01.401Z,93.66
2022-12-31T00:15:11.302Z,93.88
2022-12-31T00:20:19.991Z,94.05
2022-12-31T00:25:27.870Z,93.89
2022-12-31T00:30:38.140Z,94.39
2022-12-31T00:35:46.025Z,94.21
2022-12-31T00:40:57.480Z,93.69
2022-12-31T00:46:06.073Z,92.96
2022-12-31T00:51:15.925Z,93.02
2022-12-31T01:02:00.349Z,93.78
2022-12-31T01:07:08.261Z,93.65
2022-12-31T01:12:15.918Z,93.44
2022-12-31T01:17:24.433Z,93.51
2022-12-31T01:22:31.889Z,93.34
2022-12-31T01:27:39.478Z,93.41
2022-12-31T01:32:46.903Z,93.53
2022-12-31T01:37:55.984Z,94.16
2022-12-31T01:43:03.921Z,94.49
2022-12-31T01:48:16.153Z,94.93
2022-12-31T01:53:25.228Z,95.45
2022-12-31T01:58:38.629Z,95.56
2022-12-31T02:03:46.407Z,95.66
2022-12-31T02:08:54.800Z,95.53
2022-12-31T02:14:06.005Z,95.69
2022-12-31T02:19:42.001Z,95.88
2022-12-31T02:25:28.244Z,96.08
2022-12-31T02:30:36.652Z,96.17
2022-12-31T02:35:52.078Z,96.95
2022-12-31T02:41:02.375Z,97.23
2022-12-31T02:46:21.960Z,97.00
2022-12-31T02:51:42.231Z,96.23
2022-12-31T02:57:00.984Z,96.05
2022-12-31T03:02:16.530Z,96.52
2022-12-31T03:07:30.451Z,96.44
2022-12-31T03:12:47.850Z,95.65
2022-12-31T03:18:03.051Z,95.56
2022-12-31T03:23:13.044Z,96.18
2022-12-31T03:28:23.175Z,95.85
2022-12-31T03:33:35.853Z,96.09
2022-12-31T03:38:44.758Z,95.88
2022-12-31T03:43:55.891Z,95.82
2022-12-31T03:49:03.688Z,95.73
2022-12-31T03:54:12.121Z,95.99
2022-12-31T03:59:19.687Z,96.27
2022-12-31T04:04:27.962Z,96.17
2022-12-31T04:09:36.077Z,96.13
2022-12-31T04:14:43.989Z,96.56
2022-12-31T04:19:52.011Z,96.04
2022-12-31T04:25:00.781Z,95.95
2022-12-31T04:30:10.060Z,95.94
2022-12-31T04:35:17.980Z,96.20
2022-12-31T04:40:26.195Z,96.10
2022-12-31T04:45:34.017Z,95.74
2022-12-31T04:50:41.772Z,95.34
2022-12-31T04:55:47.996Z,94.99
2022-12-31T05:02:09.915Z,94.00
2022-12-31T05:07:20.841Z,93.46
2022-12-31T05:12:29.446Z,93.87
2022-12-31T05:17:37.423Z,94.29
2022-12-31T05:22:44.944Z,93.64
2022-12-31T05:27:52.436Z,94.14
2022-12-31T05:33:00.467Z,94.40
2022-12-31T05:38:08.067Z,94.22
2022-12-31T05:43:15.792Z,94.53
2022-12-31T05:48:23.900Z,95.06
2022-12-31T05:53:31.815Z,95.55
2022-12-31T05:58:39.545Z,96.01
2022-12-31T06:07:02.817Z,96.46
2022-12-31T06:12:11.365Z,96.68
2022-12-31T06:17:19.419Z,96.15
2022-12-31T06:22:27.668Z,95.75
2022-12-31T06:27:34.976Z,95.92
2022-12-31T06:32:40.957Z,96.18
2022-12-31T06:37:48.701Z,95.80
2022-12-31T06:43:00.203Z,95.73
2022-12-31T06:48:09.629Z,95.37
2022-12-31T06:53:16.771Z,94.88
2022-12-31T07:02:22.726Z,94.84
2022-12-31T07:07:36.292Z,94.58
2022-12-31T07:12:58.958Z,95.28
2022-12-31T07:18:13.273Z,96.02
2022-12-31T07:23:21.807Z,96.22
2022-12-31T07:28:42.980Z,96.48
2022-12-31T07:34:01.642Z,96.21
2022-12-31T07:39:12.748Z,96.39
2022-12-31T07:44:32.616Z,96.64
2022-12-31T07:49:44.766Z,97.46
2022-12-31T07:54:52.915Z,98.05
2022-12-31T08:00:10.647Z,98.41
2022-12-31T08:05:21.818Z,98.70
2022-12-31T08:10:38.965Z,99.37
2022-12-31T08:15:48.643Z,100.00
2022-12-31T08:21:10.725Z,100.00
2022-12-31T08:26:32.814Z,100.00
2022-12-31T08:31:49.903Z,100.00
2022-12-31T08:37:03.263Z,100.00
2022-12-31T08:42:22.257Z,100.00
2022-12-31T08:47:41.951Z,100.00
2022-12-31T08:52:52.314Z,100.00
2022-12-31T08:58:17.037Z,100.00
2022-12-31T09:03:37.851Z,100.00
2022-12-31T09:08:52.927Z,100.00
2022-12-31T09:14:21.445Z,100.00
2022-12-31T09:19:30.958Z,100.00
2022-12-31T09:24:43.140Z,99.91
2022-12-31T09:30:00.977Z,99.44
2022-12-31T09:35:14.017Z,98.57
2022-12-31T09:41:27.228Z,97.84
2022-12-31T09:47:03.468Z,96.93
2022-12-31T09:52:28.256Z,96.43
2022-12-31T09:57:42.864Z,96.48
2022-12-31T10:03:18.199Z,96.46
2022-12-31T10:08:45.449Z,96.42
2022-12-31T10:14:08.218Z,96.53
2022-12-31T10:20:02.603Z,95.90
2022-12-31T10:25:39.712Z,94.83
2022-12-31T10:30:59.876Z,93.90
2022-12-31T10:36:17.973Z,93.12
2022-12-31T10:42:03.467Z,92.50
2022-12-31T10:47:42.816Z,91.50
2022-12-31T10:53:32.037Z,90.18
2022-12-31T10:59:06.557Z,89.52
2022-12-31T11:04:46.826Z,88.14
2022-12-31T11:10:38.049Z,86.57
2022-12-31T11:16:12.425Z,86.14
2022-12-31T11:21:54.614Z,85.11
2022-12-31T11:27:15.796Z,84.78
2022-12-31T11:32:35.309Z,84.37
2022-12-31T11:37:48.980Z,83.13
2022-12-31T11:43:01.901Z,83.35
2022-12-31T11:48:30.253Z,82.74
2022-12-31T11:54:10.555Z,81.75
2022-12-31T11:59:19.835Z,82.15
2022-12-31T12:04:29.733Z,82.67
2022-12-31T12:09:37.902Z,82.45
2022-12-31T12:14:47.384Z,82.41
2022-12-31T12:20:02.474Z,81.86
2022-12-31T12:25:20.895Z,81.27
2022-12-31T12:30:41.663Z,81.13
2022-12-31T12:35:50.294Z,81.01
2022-12-31T12:41:01.583Z,80.70
2022-12-31T12:46:21.201Z,80.88
2022-12-31T12:51:44.324Z,80.76
2022-12-31T12:57:01.374Z,80.65
2022-12-31T13:02:16.341Z,80.75
2022-12-31T13:07:39.569Z,81.01
2022-12-31T13:18:36.840Z,80.98
2022-12-31T13:23:53.408Z,80.70
2022-12-31T13:29:06.853Z,80.63
2022-12-31T13:34:21.180Z,80.48
2022-12-31T13:39:37.682Z,80.93
2022-12-31T13:44:51.789Z,80.86
2022-12-31T13:50:16.357Z,80.80
2022-12-31T13:55:31.381Z,80.65
2022-12-31T14:00:46.383Z,81.09
2022-12-31T14:06:02.681Z,81.47
2022-12-31T14:11:20.251Z,81.75
2022-12-31T14:16:37.572Z,81.59
2022-12-31T14:21:49.445Z,82.52
2022-12-31T14:27:00.406Z,82.36
2022-12-31T14:32:34.221Z,82.53
2022-12-31T14:37:50.966Z,82.66
2022-12-31T14:43:15.367Z,83.01
2022-12-31T14:48:34.006Z,82.91
2022-12-31T14:53:55.455Z,82.94
2022-12-31T14:59:04.318Z,83.08
2022-12-31T15:04:17.111Z,83.56
2022-12-31T15:09:42.553Z,83.74
2022-12-31T15:15:17.496Z,84.09
2022-12-31T15:20:47.525Z,84.43
2022-12-31T15:26:00.252Z,84.51
2022-12-31T15:31:19.059Z,84.12
2022-12-31T15:36:31.781Z,84.64
2022-12-31T15:42:18.546Z,84.89
2022-12-31T15:47:29.108Z,84.90
2022-12-31T15:52:42.612Z,85.13
2022-12-31T15:57:51.284Z,85.56
2022-12-31T16:02:59.534Z,86.36
2022-12-31T16:08:08.347Z,86.42
2022-12-31T16:13:23.235Z,86.18
2022-12-31T16:18:41.392Z,86.43
2022-12-31T16:23:56.025Z,86.60
2022-12-31T16:29:09.847Z,86.87
2022-12-31T16:34:22.299Z,87.53
2022-12-31T16:39:33.522Z,88.08
2022-12-31T16:44:43.064Z,88.62
2022-12-31T16:49:57.804Z,89.03
2022-12-31T16:55:18.660Z,89.28
2022-12-31T17:00:28.833Z,89.49
2022-12-31T17:05:54.755Z,89.80
2022-12-31T17:11:23.176Z,90.22
2022-12-31T17:16:34.914Z,90.55
2022-12-31T17:31:59.861Z,91.27
2022-12-31T17:37:20.025Z,91.62
2022-12-31T17:42:33.097Z,91.83
2022-12-31T17:47:43.169Z,92.30
2022-12-31T17:52:55.470Z,92.76
2022-12-31T17:58:07.259Z,92.81
2022-12-31T18:03:15.205Z,93.17
2022-12-31T18:08:23.511Z,93.76
2022-12-31T18:13:33.373Z,94.04
2022-12-31T18:18:44.876Z,93.87
2022-12-31T18:29:04.476Z,92.23
2022-12-31T18:34:17.002Z,91.75
2022-12-31T18:39:26.013Z,91.75
2022-12-31T18:44:34.081Z,92.09
2022-12-31T18:49:43.833Z,92.83
2022-12-31T18:54:52.793Z,93.67
2022-12-31T19:00:01.522Z,93.73
2022-12-31T19:05:24.657Z,94.45
2022-12-31T19:10:33.847Z,94.26
2022-12-31T19:15:46.668Z,94.96
2022-12-31T19:20:54.784Z,95.30
2022-12-31T19:26:02.231Z,94.05
2022-12-31T19:31:09.576Z,94.76
2022-12-31T19:36:20.505Z,96.33
2022-12-31T19:41:29.152Z,94.44
2022-12-31T19:46:36.374Z,92.59
2022-12-31T19:51:43.959Z,92.46
2022-12-31T20:02:08.710Z,93.41
2022-12-31T20:07:26.820Z,94.84
2022-12-31T20:12:40.688Z,95.92
2022-12-31T20:17:54.288Z,95.50
2022-12-31T20:23:02.049Z,94.78
2022-12-31T20:28:10.494Z,95.39
2022-12-31T20:33:19.386Z,95.41
2022-12-31T20:38:29.765Z,94.63
2022-12-31T20:43:37.996Z,93.44
2022-12-31T20:48:46.615Z,93.43
2022-12-31T20:54:01.321Z,92.98
2022-12-31T20:59:10.803Z,92.87
2022-12-31T21:04:18.910Z,92.73
2022-12-31T21:09:27.845Z,92.64
2022-12-31T21:14:39.836Z,92.51
2022-12-31T21:19:50.852Z,92.83
2022-12-31T21:25:01.318Z,92.87
2022-12-31T21:30:19.334Z,94.50
2022-12-31T21:35:51.672Z,94.95
2022-12-31T21:41:02.457Z,94.82
2022-12-31T21:46:11.117Z,95.09
2022-12-31T21:51:19.411Z,95.98
2022-12-31T21:56:27.358Z,96.88
2022-12-31T22:01:52.377Z,96.25
2022-12-31T22:07:01.178Z,96.51
2022-12-31T22:12:09.623Z,96.85
2022-12-31T22:17:17.232Z,97.17
2022-12-31T22:22:25.867Z,97.29
2022-12-31T22:27:33.566Z,96.65
2022-12-31T22:32:41.404Z,96.72
2022-12-31T22:37:59.632Z,97.74
2022-12-31T22:43:11.256Z,98.32
2022-12-31T22:48:18.846Z,97.91
2022-12-31T22:53:26.888Z,97.12
2022-12-31T22:58:34.474Z,97.48
2022-12-31T23:03:42.589Z,97.73
2022-12-31T23:09:04.468Z,98.35
2022-12-31T23:14:35.798Z,99.97
2022-12-31T23:20:01.493Z,99.41
2022-12-31T23:25:11.788Z,99.76
2022-12-31T23:30:24.651Z,99.43
2022-12-31T23:35:32.669Z,98.20
2022-12-31T23:40:40.557Z,98.50
2022-12-31T23:45:51.908Z,98.84
2022-12-31T23:51:11.049Z,98.00
2022-12-31T23:56:23.951Z,96.18
